KERV

Kerrville Municipal / Louis Schreiner Field Airport

Kerrville, Texas, USA
METAR KERV 241955Z AUTO 19006KT 10SM SCT012 BKN026 22/18 A2988 RMK AO2 T02200181
Observed Flight Rules
Feb-24 @ 19:55 UTC (17 minutes ago) Marginal Visual Flight Rules
Wind Visibility Clouds
190° at 6 knots 10 miles
  • Scattered at 1,200' AGL
  • Broken at 2,600' AGL
Temperatures Readings
Current 22°C / 72°F
Dewpoint 18°C / 64°F
Humidity 78%
Altimeter 29.88" Hg
Pressure 1012 hPa
Elevation 510
METAR KERV 241955Z AUTO 19006KT 10SM SCT012 BKN026 22/18 A2988 RMK AO2 T02200181
Observed Flight Rules
Feb-24 @ 19:55 UTC
(17 minutes ago)
MVFR
Wind Visibility
190° at 6 knots 10 miles
Clouds
  • Scattered at 1,200' AGL
  • Broken at 2,600' AGL
Temperature Dewpoint
22°C / 72°F 18°C / 64°F
Humidity Altimeter Pressure
78% 29.88" Hg 1012 hPa